createdAt,value
2023-03-10T00:01:25.176Z,1.00
2023-03-10T00:03:54.794Z,11.60
2023-03-10T04:10:23.744Z,1.00
2023-03-10T04:12:54.979Z,1.00
2023-03-10T04:15:25.079Z,1.00
2023-03-10T04:17:53.707Z,1.00
2023-03-10T04:20:22.301Z,1.00
2023-03-10T04:22:52.719Z,1.00
2023-03-10T04:25:27.708Z,1.00
2023-03-10T04:27:57.764Z,1.00
2023-03-10T04:30:35.331Z,1.00
2023-03-10T04:33:06.098Z,1.00
2023-03-10T04:35:36.712Z,1.00
2023-03-10T04:38:05.179Z,1.00
2023-03-10T04:40:36.829Z,1.00
2023-03-10T04:43:05.387Z,1.00
2023-03-10T04:45:33.884Z,1.00
2023-03-10T04:48:02.393Z,1.00
2023-03-10T04:50:31.003Z,1.00
2023-03-10T04:52:59.425Z,1.00
2023-03-10T04:55:31.150Z,1.00
2023-03-10T04:58:02.345Z,1.00
2023-03-10T05:00:31.059Z,1.00
2023-03-10T05:03:00.358Z,1.00
2023-03-10T05:05:28.822Z,1.00
2023-03-10T05:07:57.124Z,1.00
2023-03-10T05:10:26.339Z,1.00
2023-03-10T05:12:57.606Z,1.00
2023-03-10T05:15:27.655Z,1.00
2023-03-10T05:17:56.084Z,1.00
2023-03-10T05:20:24.553Z,1.00
2023-03-10T05:22:53.219Z,1.00
2023-03-10T05:25:21.618Z,1.00
2023-03-10T05:27:50.084Z,1.00
2023-03-10T05:30:19.186Z,1.00
2023-03-10T05:32:52.136Z,1.00
2023-03-10T05:35:20.768Z,1.00
2023-03-10T05:37:49.109Z,1.00
2023-03-10T05:40:19.818Z,1.00
2023-03-10T05:42:49.567Z,1.00
2023-03-10T05:45:20.738Z,1.00
2023-03-10T05:47:49.595Z,1.00
2023-03-10T05:50:21.034Z,1.00
2023-03-10T05:52:49.474Z,1.00
2023-03-10T05:55:19.717Z,1.00
2023-03-10T05:57:48.992Z,1.00
2023-03-10T06:00:24.483Z,1.00
2023-03-10T06:03:00.386Z,1.00
2023-03-10T06:05:30.044Z,1.00
2023-03-10T06:08:07.591Z,1.00
2023-03-10T06:10:44.311Z,1.00
2023-03-10T06:13:15.470Z,1.00
2023-03-10T06:15:59.512Z,1.00
2023-03-10T06:18:51.325Z,1.00
2023-03-10T06:21:21.069Z,1.00
2023-03-10T06:23:52.394Z,1.00
2023-03-10T06:26:22.839Z,1.00
2023-03-10T06:28:51.332Z,1.00
2023-03-10T06:31:32.129Z,1.00
2023-03-10T06:34:35.993Z,1.00
2023-03-10T06:38:02.349Z,1.00
2023-03-10T06:40:36.956Z,1.00
2023-03-10T06:46:16.263Z,1.00
2023-03-10T06:48:45.227Z,1.00
2023-03-10T06:51:19.717Z,1.00
2023-03-10T06:53:49.217Z,1.00
2023-03-10T06:56:20.940Z,7.40
2023-03-10T06:58:49.965Z,21.50
2023-03-10T07:01:26.819Z,23.00
2023-03-10T07:03:56.036Z,26.80
2023-03-10T07:06:25.696Z,25.30
2023-03-10T07:08:55.547Z,27.40
2023-03-10T07:11:26.875Z,32.00
2023-03-10T07:13:55.960Z,34.40
2023-03-10T07:16:24.631Z,22.60
2023-03-10T07:18:53.092Z,35.80
2023-03-10T07:21:23.016Z,53.50
2023-03-10T07:23:52.441Z,49.40
2023-03-10T07:26:21.422Z,48.40
2023-03-10T07:28:52.286Z,38.70
2023-03-10T07:31:21.325Z,51.30
2023-03-10T07:33:50.542Z,57.70
2023-03-10T07:36:20.770Z,49.40
2023-03-10T07:38:49.652Z,57.00
2023-03-10T07:41:20.716Z,72.50
2023-03-10T07:43:52.685Z,96.40
2023-03-10T07:46:22.277Z,99.90
2023-03-10T07:48:52.795Z,96.00
2023-03-10T07:51:21.448Z,99.80
2023-03-10T07:53:49.916Z,99.90
2023-03-10T07:56:18.412Z,99.90
2023-03-10T07:58:46.947Z,99.90
2023-03-10T08:01:19.399Z,99.90
2023-03-10T08:03:48.367Z,99.90
2023-03-10T08:06:22.007Z,99.90
2023-03-10T08:08:50.779Z,99.90
2023-03-10T08:11:19.404Z,1.00
2023-03-10T08:13:48.480Z,1.00
2023-03-10T08:16:20.369Z,1.00
2023-03-10T08:18:50.393Z,1.00
2023-03-10T08:21:19.193Z,1.00
2023-03-10T08:23:47.766Z,1.00
2023-03-10T08:26:18.458Z,1.00
2023-03-10T08:28:47.136Z,1.00
2023-03-10T08:31:18.974Z,1.00
2023-03-10T08:33:47.892Z,1.00
2023-03-10T08:36:18.790Z,1.00
2023-03-10T08:38:47.918Z,1.00
2023-03-10T08:41:18.904Z,1.00
2023-03-10T08:43:49.479Z,1.00
2023-03-10T08:46:21.007Z,1.00
2023-03-10T08:48:50.772Z,1.00
2023-03-10T08:51:20.306Z,1.00
2023-03-10T08:53:50.756Z,1.00
2023-03-10T08:56:20.982Z,1.00
2023-03-10T08:58:49.839Z,1.00
2023-03-10T09:01:19.799Z,1.00
2023-03-10T09:03:48.242Z,11.50
2023-03-10T09:06:16.801Z,27.90
2023-03-10T09:08:45.485Z,57.50
2023-03-10T09:11:18.895Z,49.60
2023-03-10T09:13:51.901Z,42.20
2023-03-10T09:16:22.503Z,89.60
2023-03-10T09:18:51.114Z,99.90
2023-03-10T09:21:20.486Z,99.90
2023-03-10T09:23:52.934Z,95.70
2023-03-10T09:26:21.911Z,1.00
2023-03-10T09:28:51.248Z,25.30
2023-03-10T09:31:24.352Z,71.40
2023-03-10T09:33:53.936Z,76.60
2023-03-10T09:36:22.545Z,61.20
2023-03-10T09:38:50.898Z,17.90
2023-03-10T09:41:40.319Z,7.50
2023-03-10T09:44:24.245Z,47.30
2023-03-10T09:47:07.273Z,22.60
2023-03-10T09:49:41.469Z,1.00
2023-03-10T09:52:22.526Z,5.10
2023-03-10T09:54:58.890Z,34.20
2023-03-10T09:57:31.650Z,1.00
2023-03-10T10:00:03.768Z,38.70
2023-03-10T10:02:37.364Z,67.10
2023-03-10T10:05:14.967Z,73.50
2023-03-10T10:07:49.656Z,98.90
2023-03-10T10:10:19.699Z,94.90
2023-03-10T10:12:52.553Z,96.10
2023-03-10T10:15:23.595Z,99.90
2023-03-10T10:18:18.052Z,99.90
2023-03-10T10:20:53.970Z,99.90
2023-03-10T10:23:26.461Z,99.90
2023-03-10T10:25:55.130Z,99.90
2023-03-10T10:28:30.237Z,99.90
2023-03-10T10:31:12.348Z,99.90
2023-03-10T10:33:57.783Z,99.90
2023-03-10T10:36:28.306Z,99.90
2023-03-10T10:38:57.790Z,99.90
2023-03-10T10:41:29.169Z,99.90
2023-03-10T10:44:00.432Z,99.90
2023-03-10T10:46:30.655Z,99.90
2023-03-10T10:49:06.319Z,99.90
2023-03-10T10:51:37.926Z,99.90
2023-03-10T10:54:28.337Z,99.90
2023-03-10T10:56:58.595Z,99.90
2023-03-10T10:59:31.081Z,99.90
2023-03-10T11:02:01.283Z,99.90
2023-03-10T11:04:43.820Z,99.90
2023-03-10T11:07:17.741Z,99.90
2023-03-10T11:09:46.102Z,99.90
2023-03-10T11:12:22.133Z,99.90
2023-03-10T11:15:03.385Z,99.90
2023-03-10T11:17:36.607Z,99.90
2023-03-10T11:20:16.206Z,99.90
2023-03-10T11:22:48.258Z,98.20
2023-03-10T11:25:23.851Z,32.00
2023-03-10T11:28:03.264Z,1.00
2023-03-10T11:30:34.233Z,9.80
2023-03-10T11:33:15.682Z,30.40
2023-03-10T11:35:47.805Z,1.00
2023-03-10T11:38:24.658Z,1.00
2023-03-10T11:40:55.139Z,1.00
2023-03-10T11:43:33.741Z,74.00
2023-03-10T11:46:08.847Z,64.30
2023-03-10T11:48:50.848Z,17.50
2023-03-10T11:51:29.219Z,99.90
2023-03-10T11:54:00.107Z,1.00
2023-03-10T11:56:31.815Z,1.00
2023-03-10T11:59:06.856Z,1.00
2023-03-10T12:01:41.268Z,99.90
2023-03-10T12:04:14.829Z,31.20
2023-03-10T12:06:49.781Z,76.30
2023-03-10T12:09:26.936Z,1.00
2023-03-10T12:11:56.068Z,1.00
2023-03-10T12:14:25.624Z,1.00
2023-03-10T12:16:55.459Z,99.90
2023-03-10T12:19:23.834Z,99.90
2023-03-10T12:22:25.911Z,68.30
2023-03-10T12:24:54.295Z,99.90
2023-03-10T12:27:22.567Z,99.90
2023-03-10T12:29:50.864Z,1.00
2023-03-10T12:32:42.822Z,1.00
2023-03-10T12:35:43.772Z,1.00
2023-03-10T12:38:31.002Z,1.00
2023-03-10T12:41:01.138Z,77.60
2023-03-10T12:43:57.106Z,1.00
2023-03-10T12:46:39.868Z,1.00
2023-03-10T12:49:33.535Z,9.00
2023-03-10T12:52:19.686Z,1.00
2023-03-10T12:55:02.987Z,1.00
2023-03-10T12:57:35.491Z,99.90
2023-03-10T13:00:12.512Z,1.00
2023-03-10T13:02:49.067Z,1.00
2023-03-10T13:05:24.181Z,99.90
2023-03-10T13:07:56.158Z,1.00
2023-03-10T13:10:29.362Z,99.90
2023-03-10T13:13:02.025Z,99.90
2023-03-10T13:15:31.977Z,1.00
2023-03-10T13:18:19.536Z,1.00
2023-03-10T13:20:48.980Z,99.90
2023-03-10T13:23:23.963Z,99.90
2023-03-10T13:25:55.146Z,1.00
2023-03-10T13:28:23.897Z,99.90
2023-03-10T13:30:53.804Z,1.00
2023-03-10T13:33:26.142Z,1.00
2023-03-10T13:35:54.671Z,99.90
2023-03-10T13:38:24.763Z,1.00
2023-03-10T13:41:03.388Z,99.90
2023-03-10T13:43:36.618Z,1.00
2023-03-10T13:46:09.885Z,99.90
2023-03-10T13:48:40.802Z,1.00
2023-03-10T13:51:18.739Z,96.80
2023-03-10T13:53:48.329Z,99.90
2023-03-10T13:56:21.451Z,1.00
2023-03-10T13:58:52.018Z,1.00
2023-03-10T14:01:24.409Z,99.90
2023-03-10T14:04:02.267Z,1.00
2023-03-10T14:06:31.124Z,99.90
2023-03-10T14:09:14.056Z,99.90
2023-03-10T14:11:44.995Z,1.00
2023-03-10T14:14:14.748Z,1.00
2023-03-10T14:16:51.655Z,1.00
2023-03-10T14:19:51.684Z,1.00
2023-03-10T14:22:35.380Z,26.70
2023-03-10T14:25:07.770Z,1.00
2023-03-10T14:27:41.726Z,1.00
2023-03-10T14:30:29.959Z,99.90
2023-03-10T14:32:59.685Z,58.30
2023-03-10T14:35:29.480Z,99.90
2023-03-10T14:37:57.827Z,96.90
2023-03-10T14:40:26.939Z,91.80
2023-03-10T14:43:02.325Z,99.90
2023-03-10T14:45:32.508Z,99.90
2023-03-10T14:48:03.944Z,99.90
2023-03-10T14:50:32.968Z,1.00
2023-03-10T14:53:01.238Z,99.90
2023-03-10T14:55:30.322Z,99.90
2023-03-10T14:58:03.387Z,99.90
2023-03-10T15:00:31.849Z,1.00
2023-03-10T15:03:00.322Z,99.90
2023-03-10T15:05:45.385Z,99.90
2023-03-10T15:08:16.662Z,99.90
2023-03-10T15:10:50.665Z,1.00
2023-03-10T15:13:22.689Z,1.00
2023-03-10T15:15:51.746Z,1.00
2023-03-10T15:18:21.480Z,1.00
2023-03-10T15:20:50.010Z,1.00
2023-03-10T15:23:20.136Z,1.00
2023-03-10T15:25:48.950Z,1.00
2023-03-10T15:28:17.696Z,1.00
2023-03-10T15:30:47.592Z,99.90
2023-03-10T15:33:16.481Z,99.90
2023-03-10T15:35:45.308Z,99.90
2023-03-10T15:38:15.678Z,99.90
2023-03-10T15:40:44.241Z,99.90
2023-03-10T15:43:12.487Z,1.00
2023-03-10T15:45:42.806Z,1.00
2023-03-10T15:48:12.784Z,1.00
2023-03-10T15:50:43.916Z,1.00
2023-03-10T15:53:12.300Z,1.00
2023-03-10T15:55:42.278Z,99.90
2023-03-10T15:58:11.580Z,1.00
2023-03-10T16:00:40.118Z,1.00
2023-03-10T16:03:08.573Z,99.90
2023-03-10T16:05:39.097Z,99.90
2023-03-10T16:08:07.519Z,1.00
2023-03-10T16:10:36.060Z,99.90
2023-03-10T16:13:04.387Z,99.90
2023-03-10T16:15:32.642Z,99.90
2023-03-10T16:18:00.906Z,1.00
2023-03-10T16:20:29.314Z,1.00
2023-03-10T16:22:59.041Z,99.90
2023-03-10T16:25:27.482Z,99.90
2023-03-10T16:27:55.745Z,99.90
2023-03-10T16:30:24.309Z,1.00
2023-03-10T16:32:52.825Z,1.00
2023-03-10T16:35:21.149Z,1.00
2023-03-10T16:37:49.463Z,99.90
2023-03-10T16:40:19.372Z,1.00
2023-03-10T16:42:47.694Z,1.00
2023-03-10T16:45:16.372Z,1.00
2023-03-10T16:47:46.174Z,1.00
2023-03-10T16:50:14.514Z,1.00
2023-03-10T16:52:43.856Z,1.00
2023-03-10T16:55:17.295Z,45.60
2023-03-10T16:57:47.600Z,99.90
2023-03-10T17:00:21.127Z,99.90
2023-03-10T17:02:49.688Z,99.90
2023-03-10T17:05:18.440Z,1.00
2023-03-10T17:07:55.575Z,1.00
2023-03-10T17:10:26.926Z,1.00
2023-03-10T17:12:57.264Z,1.00
2023-03-10T17:15:26.083Z,1.00
2023-03-10T17:17:54.333Z,23.30
2023-03-10T17:20:22.701Z,99.90
2023-03-10T17:22:50.943Z,99.90
2023-03-10T17:25:19.310Z,99.90
2023-03-10T17:27:48.132Z,99.90
2023-03-10T17:30:20.074Z,99.90
2023-03-10T17:32:50.431Z,99.90
2023-03-10T17:35:19.005Z,1.00
2023-03-10T17:37:47.268Z,1.00
2023-03-10T17:40:17.383Z,1.00
2023-03-10T17:42:45.688Z,1.00
2023-03-10T17:45:13.947Z,1.00
2023-03-10T17:47:43.650Z,1.00
2023-03-10T17:50:13.085Z,1.00
2023-03-10T17:52:41.410Z,1.00
2023-03-10T17:55:10.983Z,1.00
2023-03-10T17:57:40.854Z,1.00
2023-03-10T18:00:11.411Z,1.00
2023-03-10T18:02:43.856Z,50.60
2023-03-10T18:05:12.996Z,99.90
2023-03-10T18:07:41.381Z,99.90
2023-03-10T18:10:11.259Z,99.90
2023-03-10T18:12:39.617Z,99.90
2023-03-10T18:15:09.066Z,99.90
2023-03-10T18:17:37.515Z,99.90
2023-03-10T18:20:10.110Z,99.90
2023-03-10T18:22:38.765Z,99.90
2023-03-10T18:25:07.962Z,99.90
2023-03-10T18:27:39.972Z,1.00
2023-03-10T18:30:10.066Z,1.00
2023-03-10T18:32:38.503Z,1.00
2023-03-10T18:35:11.160Z,1.00
2023-03-10T18:37:39.501Z,1.00
2023-03-10T18:40:09.220Z,1.00
2023-03-10T18:42:37.520Z,1.00
2023-03-10T18:45:07.406Z,1.00
2023-03-10T18:47:35.680Z,1.00
2023-03-10T18:50:03.900Z,1.00
2023-03-10T18:52:33.954Z,1.00
2023-03-10T18:55:02.293Z,1.00
2023-03-10T18:57:30.544Z,1.00
2023-03-10T19:00:00.784Z,1.00
2023-03-10T19:02:29.377Z,1.00
2023-03-10T19:04:59.606Z,1.00
2023-03-10T19:07:27.888Z,1.00
2023-03-10T19:09:57.811Z,1.00
2023-03-10T19:12:26.609Z,1.00
2023-03-10T19:14:55.463Z,1.00
2023-03-10T19:17:26.502Z,1.00
2023-03-10T19:19:55.162Z,1.00
2023-03-10T19:22:23.514Z,1.00
2023-03-10T19:24:51.789Z,1.00
2023-03-10T19:27:21.645Z,1.00
2023-03-10T19:29:53.060Z,1.00
2023-03-10T19:32:21.930Z,1.00
2023-03-10T19:34:50.470Z,1.00
2023-03-10T19:37:18.859Z,1.00
2023-03-10T19:39:47.185Z,21.30
2023-03-10T19:42:15.567Z,29.20
2023-03-10T19:44:47.161Z,47.70
2023-03-10T19:47:17.548Z,89.00
2023-03-10T19:49:46.352Z,99.90
2023-03-10T19:52:14.643Z,91.90
2023-03-10T19:54:42.992Z,88.20
2023-03-10T19:57:13.241Z,83.20
2023-03-10T19:59:42.189Z,89.70
2023-03-10T20:02:14.718Z,71.50
2023-03-10T20:04:43.501Z,79.40
2023-03-10T20:07:12.511Z,91.30
2023-03-10T20:09:40.808Z,99.90
2023-03-10T20:12:09.154Z,99.90
2023-03-10T20:14:37.597Z,99.90
2023-03-10T20:17:05.871Z,99.90
2023-03-10T20:19:35.597Z,99.90
2023-03-10T20:22:04.711Z,99.90
2023-03-10T20:24:32.985Z,99.90
2023-03-10T20:27:03.195Z,99.90
2023-03-10T20:29:32.614Z,99.90
2023-03-10T20:32:00.845Z,99.90
2023-03-10T20:34:29.214Z,99.90
2023-03-10T20:36:58.971Z,99.90
2023-03-10T20:39:27.340Z,99.90
2023-03-10T20:41:55.637Z,99.90
2023-03-10T20:44:24.079Z,99.90
2023-03-10T20:46:52.339Z,99.90
2023-03-10T20:49:20.689Z,99.90
2023-03-10T20:51:48.937Z,99.90
2023-03-10T20:54:19.019Z,99.90
2023-03-10T20:56:47.320Z,99.90
2023-03-10T20:59:15.608Z,99.90
2023-03-10T21:01:44.011Z,99.90
2023-03-10T21:04:12.371Z,99.90
2023-03-10T21:06:40.730Z,99.90
2023-03-10T21:09:08.947Z,92.60
2023-03-10T21:11:38.752Z,44.00
2023-03-10T21:14:07.234Z,7.70
2023-03-10T21:16:39.676Z,1.00
2023-03-10T21:19:08.178Z,1.00
2023-03-10T21:21:36.807Z,1.00
2023-03-10T21:24:06.255Z,1.00
2023-03-10T21:26:34.615Z,1.00
2023-03-10T21:29:04.808Z,1.00
2023-03-10T21:31:33.181Z,1.00
2023-03-10T21:34:01.437Z,1.00
2023-03-10T21:36:29.784Z,1.00
2023-03-10T21:38:58.100Z,1.00
2023-03-10T21:41:29.088Z,1.00
2023-03-10T21:43:58.585Z,1.00
2023-03-10T21:46:28.748Z,1.00
2023-03-10T21:48:57.114Z,1.00
2023-03-10T21:51:26.910Z,1.00
2023-03-10T21:53:55.501Z,1.00
2023-03-10T21:56:26.070Z,1.00
2023-03-10T21:58:54.418Z,1.00
2023-03-10T22:01:23.495Z,1.00
2023-03-10T22:03:53.650Z,1.00
2023-03-10T22:06:22.302Z,1.00
2023-03-10T22:08:50.846Z,1.00
2023-03-10T22:11:20.214Z,1.00
2023-03-10T22:13:48.542Z,1.00
2023-03-10T22:16:18.515Z,1.00
2023-03-10T22:18:47.369Z,1.00
2023-03-10T22:21:17.826Z,1.00
2023-03-10T22:23:46.159Z,1.00
2023-03-10T22:26:14.779Z,1.00
2023-03-10T22:28:43.063Z,1.00
2023-03-10T22:31:12.052Z,1.00
2023-03-10T22:33:40.557Z,1.00
2023-03-10T22:36:12.348Z,1.00
2023-03-10T22:38:42.322Z,1.00
2023-03-10T22:41:11.871Z,1.00
2023-03-10T22:43:40.455Z,1.00
2023-03-10T22:46:11.116Z,1.00
2023-03-10T22:48:39.515Z,1.00
2023-03-10T22:51:08.977Z,1.00
2023-03-10T22:53:38.183Z,1.00
2023-03-10T22:56:08.763Z,1.00
2023-03-10T22:58:37.753Z,1.00
2023-03-10T23:01:06.407Z,1.00
2023-03-10T23:03:35.334Z,1.00
2023-03-10T23:06:05.193Z,1.00
2023-03-10T23:08:33.749Z,1.00
2023-03-10T23:11:02.032Z,1.00
2023-03-10T23:13:31.851Z,99.90
2023-03-10T23:16:00.284Z,1.00
2023-03-10T23:18:28.568Z,99.90
2023-03-10T23:20:56.819Z,99.90
2023-03-10T23:23:25.184Z,99.90
2023-03-10T23:25:53.580Z,99.90
2023-03-10T23:28:22.803Z,99.90
2023-03-10T23:30:54.333Z,99.90
2023-03-10T23:33:24.595Z,99.90
2023-03-10T23:35:54.487Z,99.90
2023-03-10T23:38:25.620Z,99.90
2023-03-10T23:40:55.522Z,99.90
2023-03-10T23:43:25.826Z,99.90
2023-03-10T23:45:55.886Z,61.40
2023-03-10T23:48:24.770Z,1.00
2023-03-10T23:50:52.996Z,1.00
2023-03-10T23:53:21.844Z,1.00
2023-03-10T23:55:50.865Z,1.00
2023-03-10T23:58:21.188Z,1.00
